createdAt,value
2023-01-08T00:00:00.234Z,8.50
2023-01-08T00:01:22.355Z,8.40
2023-01-08T00:02:44.467Z,8.40
2023-01-08T00:04:06.635Z,8.40
2023-01-08T00:05:28.715Z,8.40
2023-01-08T00:06:50.861Z,8.40
2023-01-08T00:08:12.942Z,8.40
2023-01-08T00:09:34.999Z,8.40
2023-01-08T00:10:57.329Z,8.40
2023-01-08T00:12:19.455Z,8.40
2023-01-08T00:13:41.802Z,8.40
2023-01-08T00:15:04.039Z,8.40
2023-01-08T00:16:26.117Z,8.40
2023-01-08T00:17:48.349Z,8.40
2023-01-08T00:19:11.918Z,8.30
2023-01-08T00:20:34.038Z,8.30
2023-01-08T00:21:56.087Z,8.30
2023-01-08T00:23:19.478Z,8.30
2023-01-08T00:24:41.487Z,8.30
2023-01-08T00:26:05.845Z,8.30
2023-01-08T00:27:27.946Z,8.30
2023-01-08T00:28:50.076Z,8.30
2023-01-08T00:30:13.438Z,8.40
2023-01-08T00:31:35.452Z,8.40
2023-01-08T00:32:57.562Z,8.30
2023-01-08T00:34:19.631Z,8.30
2023-01-08T00:35:41.826Z,8.30
2023-01-08T00:37:03.943Z,8.40
2023-01-08T00:38:27.557Z,8.30
2023-01-08T00:39:49.598Z,8.30
2023-01-08T00:41:13.285Z,8.30
2023-01-08T00:42:35.328Z,8.30
2023-01-08T00:43:57.385Z,8.30
2023-01-08T00:45:19.485Z,8.30
2023-01-08T00:46:41.600Z,8.30
2023-01-08T00:48:03.689Z,8.30
2023-01-08T00:49:25.761Z,8.30
2023-01-08T00:50:48.276Z,8.30
2023-01-08T00:52:10.377Z,8.30
2023-01-08T00:53:32.508Z,8.40
2023-01-08T00:54:54.601Z,8.30
2023-01-08T00:56:16.669Z,8.30
2023-01-08T00:57:39.451Z,8.30
2023-01-08T00:59:01.540Z,8.30
2023-01-08T01:00:23.881Z,8.30
2023-01-08T01:01:47.649Z,8.30
2023-01-08T01:03:09.772Z,8.30
2023-01-08T01:04:31.913Z,8.30
2023-01-08T01:06:06.993Z,8.30
2023-01-08T01:07:29.091Z,8.30
2023-01-08T01:08:51.417Z,8.30
2023-01-08T01:10:16.224Z,8.30
2023-01-08T01:11:38.309Z,8.30
2023-01-08T01:13:00.362Z,8.30
2023-01-08T01:14:22.543Z,8.30
2023-01-08T01:15:44.571Z,8.30
2023-01-08T01:17:06.596Z,8.30
2023-01-08T01:18:29.102Z,8.20
2023-01-08T01:19:51.328Z,8.20
2023-01-08T01:21:23.158Z,8.20
2023-01-08T01:22:45.355Z,8.20
2023-01-08T01:24:07.918Z,8.20
2023-01-08T01:25:30.074Z,8.20
2023-01-08T01:26:52.472Z,8.20
2023-01-08T01:28:15.296Z,8.20
2023-01-08T01:29:37.472Z,8.20
2023-01-08T01:30:59.885Z,8.20
2023-01-08T01:32:21.968Z,8.20
2023-01-08T01:33:44.742Z,8.20
2023-01-08T01:35:07.149Z,8.20
2023-01-08T01:36:29.480Z,8.20
2023-01-08T01:37:51.565Z,8.20
2023-01-08T01:39:13.707Z,8.30
2023-01-08T01:40:35.795Z,8.30
2023-01-08T01:41:57.914Z,8.30
2023-01-08T01:43:53.460Z,8.30
2023-01-08T01:45:29.840Z,8.30
2023-01-08T01:46:51.940Z,8.30
2023-01-08T01:48:14.998Z,8.30
2023-01-08T01:49:38.338Z,8.30
2023-01-08T01:51:00.908Z,8.30
2023-01-08T01:52:24.693Z,8.30
2023-01-08T01:53:47.028Z,8.30
2023-01-08T01:55:11.675Z,8.30
2023-01-08T01:56:34.589Z,8.30
2023-01-08T01:58:05.337Z,8.30
2023-01-08T01:59:27.960Z,8.20
2023-01-08T02:00:50.984Z,8.20
2023-01-08T02:02:13.186Z,8.10
2023-01-08T02:03:39.242Z,8.10
2023-01-08T02:05:02.270Z,8.00
2023-01-08T02:06:36.678Z,8.00
2023-01-08T02:08:06.809Z,7.90
2023-01-08T02:09:57.128Z,7.90
2023-01-08T02:11:27.389Z,7.90
2023-01-08T02:12:56.169Z,7.80
2023-01-08T02:14:31.835Z,7.80
2023-01-08T02:16:26.425Z,7.70
2023-01-08T02:18:07.203Z,7.70
2023-01-08T02:19:44.572Z,7.60
2023-01-08T02:21:12.933Z,7.60
2023-01-08T02:23:05.981Z,7.50
2023-01-08T02:24:56.619Z,7.50
2023-01-08T02:26:35.720Z,7.40
2023-01-08T02:28:00.719Z,7.40
2023-01-08T02:29:25.375Z,7.40
2023-01-08T02:30:48.060Z,7.30
2023-01-08T02:32:10.357Z,7.30
2023-01-08T02:33:32.514Z,7.30
2023-01-08T02:34:55.465Z,7.30
2023-01-08T02:36:22.763Z,7.30
2023-01-08T02:37:45.369Z,7.20
2023-01-08T02:39:07.511Z,7.20
2023-01-08T02:40:42.210Z,7.20
2023-01-08T02:42:35.269Z,7.10
2023-01-08T02:44:00.008Z,7.10
2023-01-08T02:45:27.874Z,7.00
2023-01-08T02:46:53.483Z,7.00
2023-01-08T02:48:25.810Z,7.00
2023-01-08T02:49:53.270Z,6.90
2023-01-08T02:51:35.736Z,6.90
2023-01-08T02:53:13.193Z,6.90
2023-01-08T02:54:36.207Z,6.80
2023-01-08T02:56:26.371Z,6.80
2023-01-08T02:57:48.920Z,6.80
2023-01-08T02:59:13.607Z,6.80
2023-01-08T03:00:37.319Z,6.80
2023-01-08T03:02:00.861Z,6.80
2023-01-08T03:03:28.515Z,6.80
2023-01-08T03:04:55.005Z,6.80
2023-01-08T03:06:19.552Z,6.80
2023-01-08T03:07:41.838Z,6.70
2023-01-08T03:09:06.061Z,6.70
2023-01-08T03:10:30.309Z,6.70
2023-01-08T03:12:21.205Z,6.70
2023-01-08T03:13:51.253Z,6.70
2023-01-08T03:15:21.167Z,6.70
2023-01-08T03:16:48.905Z,6.60
2023-01-08T03:18:15.553Z,6.60
2023-01-08T03:19:50.290Z,6.60
2023-01-08T03:21:13.688Z,6.60
2023-01-08T03:22:39.248Z,6.60
2023-01-08T03:24:03.257Z,6.60
2023-01-08T03:25:28.194Z,6.50
2023-01-08T03:26:53.742Z,6.50
2023-01-08T03:28:30.180Z,6.50
2023-01-08T03:29:54.750Z,6.50
2023-01-08T03:31:18.691Z,6.40
2023-01-08T03:32:42.291Z,6.40
2023-01-08T03:34:05.337Z,6.40
2023-01-08T03:35:29.196Z,6.40
2023-01-08T03:36:55.756Z,6.40
2023-01-08T03:38:32.672Z,6.40
2023-01-08T03:40:20.462Z,6.40
2023-01-08T03:41:42.872Z,6.40
2023-01-08T03:43:04.986Z,6.40
2023-01-08T03:44:27.151Z,6.40
2023-01-08T03:45:53.829Z,6.40
2023-01-08T03:47:16.525Z,6.30
2023-01-08T03:48:39.123Z,6.30
2023-01-08T03:50:03.259Z,6.30
2023-01-08T03:51:25.729Z,6.30
2023-01-08T03:52:47.783Z,6.30
2023-01-08T03:54:13.843Z,6.30
2023-01-08T03:55:36.359Z,6.30
2023-01-08T03:56:58.519Z,6.20
2023-01-08T03:58:20.582Z,6.20
2023-01-08T03:59:42.700Z,6.20
2023-01-08T04:01:04.855Z,6.20
2023-01-08T04:02:27.180Z,6.20
2023-01-08T04:03:49.293Z,6.20
2023-01-08T04:05:11.620Z,6.20
2023-01-08T04:06:33.792Z,6.20
2023-01-08T04:07:56.862Z,6.20
2023-01-08T04:09:18.985Z,6.20
2023-01-08T04:10:41.055Z,6.20
2023-01-08T04:12:03.442Z,6.20
2023-01-08T04:13:25.437Z,6.20
2023-01-08T04:14:47.518Z,6.20
2023-01-08T04:16:09.697Z,6.20
2023-01-08T04:17:31.790Z,6.20
2023-01-08T04:18:53.864Z,6.20
2023-01-08T04:20:16.070Z,6.20
2023-01-08T04:21:38.951Z,6.20
2023-01-08T04:23:00.985Z,6.20
2023-01-08T04:24:23.047Z,6.30
2023-01-08T04:25:45.085Z,6.30
2023-01-08T04:27:07.186Z,6.30
2023-01-08T04:28:29.264Z,6.30
2023-01-08T04:29:51.322Z,6.30
2023-01-08T04:31:13.435Z,6.20
2023-01-08T04:32:35.560Z,6.20
2023-01-08T04:33:57.646Z,6.20
2023-01-08T04:35:19.698Z,6.20
2023-01-08T04:36:41.766Z,6.20
2023-01-08T04:38:03.929Z,6.20
2023-01-08T04:39:26.065Z,6.20
2023-01-08T04:40:48.127Z,6.20
2023-01-08T04:42:10.230Z,6.30
2023-01-08T04:43:32.683Z,6.30
2023-01-08T04:44:54.688Z,6.30
2023-01-08T04:46:16.888Z,6.40
2023-01-08T04:47:38.975Z,6.40
2023-01-08T04:49:01.028Z,6.40
2023-01-08T04:50:23.347Z,6.50
2023-01-08T04:51:45.621Z,6.50
2023-01-08T04:53:07.763Z,6.60
2023-01-08T04:54:29.796Z,6.60
2023-01-08T04:55:51.885Z,6.60
2023-01-08T04:57:13.953Z,6.70
2023-01-08T04:58:38.000Z,6.70
2023-01-08T05:00:00.058Z,6.70
2023-01-08T05:01:24.757Z,6.70
2023-01-08T05:02:47.092Z,6.80
2023-01-08T05:04:11.525Z,6.80
2023-01-08T05:05:34.587Z,6.80
2023-01-08T05:06:56.780Z,6.90
2023-01-08T05:08:18.863Z,6.90
2023-01-08T05:09:40.976Z,6.90
2023-01-08T05:11:03.492Z,6.90
2023-01-08T05:12:25.723Z,6.90
2023-01-08T05:13:49.475Z,6.80
2023-01-08T05:15:11.714Z,6.80
2023-01-08T05:16:33.768Z,6.80
2023-01-08T05:18:03.843Z,6.70
2023-01-08T05:19:25.916Z,6.70
2023-01-08T05:20:47.985Z,6.70
2023-01-08T05:22:10.097Z,6.60
2023-01-08T05:23:33.413Z,6.60
2023-01-08T05:24:55.465Z,6.60
2023-01-08T05:26:19.185Z,6.60
2023-01-08T05:27:41.261Z,6.70
2023-01-08T05:29:03.615Z,6.70
2023-01-08T05:30:25.714Z,6.70
2023-01-08T05:31:47.842Z,6.80
2023-01-08T05:33:09.976Z,6.80
2023-01-08T05:34:32.063Z,6.80
2023-01-08T05:35:54.324Z,6.80
2023-01-08T05:37:16.433Z,6.90
2023-01-08T05:38:39.109Z,6.90
2023-01-08T05:40:01.232Z,6.90
2023-01-08T05:41:23.356Z,6.90
2023-01-08T05:42:45.479Z,6.90
2023-01-08T05:44:07.601Z,7.00
2023-01-08T05:45:29.845Z,7.00
2023-01-08T05:46:53.982Z,7.00
2023-01-08T05:48:16.108Z,7.00
2023-01-08T05:49:38.160Z,7.00
2023-01-08T05:51:00.357Z,7.10
2023-01-08T05:52:22.522Z,7.10
2023-01-08T05:53:44.591Z,7.10
2023-01-08T05:55:06.978Z,7.10
2023-01-08T05:56:29.091Z,7.10
2023-01-08T05:57:51.195Z,7.10
2023-01-08T05:59:13.777Z,7.00
2023-01-08T06:00:35.805Z,7.00
2023-01-08T06:01:57.928Z,7.00
2023-01-08T06:03:23.424Z,6.90
2023-01-08T06:04:45.486Z,6.90
2023-01-08T06:06:08.477Z,6.90
2023-01-08T06:07:30.579Z,6.90
2023-01-08T06:08:52.670Z,6.90
2023-01-08T06:10:14.850Z,6.90
2023-01-08T06:11:36.948Z,6.90
2023-01-08T06:12:58.993Z,6.90
2023-01-08T06:14:21.012Z,6.90
2023-01-08T06:15:43.102Z,6.90
2023-01-08T06:17:05.190Z,7.00
2023-01-08T06:18:28.978Z,7.00
2023-01-08T06:19:51.021Z,7.00
2023-01-08T06:21:14.412Z,7.00
2023-01-08T06:22:36.835Z,7.10
2023-01-08T06:23:58.899Z,7.10
2023-01-08T06:25:21.265Z,7.10
2023-01-08T06:26:43.350Z,7.10
2023-01-08T06:28:05.903Z,7.10
2023-01-08T06:29:27.964Z,7.20
2023-01-08T06:30:50.304Z,7.10
2023-01-08T06:32:12.405Z,7.20
2023-01-08T06:33:34.530Z,7.20
2023-01-08T06:34:56.669Z,7.20
2023-01-08T06:36:18.798Z,7.20
2023-01-08T06:37:40.847Z,7.20
2023-01-08T06:39:05.275Z,7.20
2023-01-08T06:40:27.374Z,7.20
2023-01-08T06:41:50.612Z,7.30
2023-01-08T06:43:13.027Z,7.30
2023-01-08T06:44:35.055Z,7.30
2023-01-08T06:45:58.430Z,7.30
2023-01-08T06:47:20.503Z,7.30
2023-01-08T06:48:42.583Z,7.30
2023-01-08T06:50:06.183Z,7.40
2023-01-08T06:51:28.255Z,7.40
2023-01-08T06:52:54.511Z,7.40
2023-01-08T06:54:16.625Z,7.40
2023-01-08T06:55:38.679Z,7.40
2023-01-08T06:57:00.790Z,7.40
2023-01-08T06:58:24.290Z,7.50
2023-01-08T06:59:46.314Z,7.40
2023-01-08T07:01:14.168Z,7.50
2023-01-08T07:02:36.467Z,7.40
2023-01-08T07:03:58.672Z,7.50
2023-01-08T07:05:20.809Z,7.50
2023-01-08T07:06:42.881Z,7.50
2023-01-08T07:08:05.194Z,7.50
2023-01-08T07:09:27.295Z,7.50
2023-01-08T07:10:49.356Z,7.50
2023-01-08T07:12:18.298Z,7.50
2023-01-08T07:13:40.431Z,7.50
2023-01-08T07:15:02.991Z,7.50
2023-01-08T07:16:25.284Z,7.50
2023-01-08T07:17:47.639Z,7.50
2023-01-08T07:19:10.069Z,7.50
2023-01-08T07:20:33.471Z,7.50
2023-01-08T07:21:55.580Z,7.50
2023-01-08T07:23:17.619Z,7.50
2023-01-08T07:24:39.648Z,7.50
2023-01-08T07:26:03.021Z,7.50
2023-01-08T07:27:25.070Z,7.50
2023-01-08T07:28:47.081Z,7.50
2023-01-08T07:30:20.968Z,7.50
2023-01-08T07:31:46.889Z,7.50
2023-01-08T07:33:08.975Z,7.50
2023-01-08T07:34:31.029Z,7.50
2023-01-08T07:35:57.581Z,7.50
2023-01-08T07:37:19.689Z,7.50
2023-01-08T07:38:42.868Z,7.50
2023-01-08T07:40:05.483Z,7.50
2023-01-08T07:41:27.617Z,7.50
2023-01-08T07:43:00.532Z,7.60
2023-01-08T07:44:22.554Z,7.60
2023-01-08T07:45:45.244Z,7.50
2023-01-08T07:47:07.289Z,7.60
2023-01-08T07:48:29.332Z,7.60
2023-01-08T07:49:51.417Z,7.60
2023-01-08T07:51:13.486Z,7.60
2023-01-08T07:52:35.570Z,7.60
2023-01-08T07:53:57.733Z,7.60
2023-01-08T07:55:19.833Z,7.60
2023-01-08T07:56:41.908Z,7.60
2023-01-08T07:58:13.619Z,7.60
2023-01-08T07:59:35.639Z,7.60
2023-01-08T08:00:59.358Z,7.60
2023-01-08T08:02:21.727Z,7.60
2023-01-08T08:03:43.909Z,7.60
2023-01-08T08:05:06.268Z,7.60
2023-01-08T08:06:28.369Z,7.60
2023-01-08T08:07:50.431Z,7.60
2023-01-08T08:09:12.527Z,7.60
2023-01-08T08:10:34.579Z,7.60
2023-01-08T08:11:56.641Z,7.60
2023-01-08T08:13:18.732Z,7.70
2023-01-08T08:14:40.782Z,7.70
2023-01-08T08:16:04.398Z,7.70
2023-01-08T08:17:26.958Z,7.70
2023-01-08T08:18:49.159Z,7.70
2023-01-08T08:20:11.640Z,7.70
2023-01-08T08:21:33.823Z,7.70
2023-01-08T08:23:07.972Z,7.70
2023-01-08T08:24:30.053Z,7.70
2023-01-08T08:25:52.408Z,7.70
2023-01-08T08:27:14.522Z,7.70
2023-01-08T08:28:36.584Z,7.70
2023-01-08T08:29:58.691Z,7.80
2023-01-08T08:31:20.769Z,7.80
2023-01-08T08:32:42.835Z,7.80
2023-01-08T08:34:06.827Z,7.80
2023-01-08T08:35:29.307Z,7.80
2023-01-08T08:36:51.520Z,7.80
2023-01-08T08:38:13.531Z,7.80
2023-01-08T08:39:36.816Z,7.80
2023-01-08T08:40:58.938Z,7.90
2023-01-08T08:42:21.137Z,7.90
2023-01-08T08:43:43.880Z,7.90
2023-01-08T08:45:06.600Z,7.90
2023-01-08T08:46:29.792Z,7.90
2023-01-08T08:47:51.921Z,7.90
2023-01-08T08:49:13.968Z,7.90
2023-01-08T08:50:36.280Z,7.90
2023-01-08T08:51:58.773Z,7.90
2023-01-08T08:53:20.841Z,7.90
2023-01-08T08:54:42.897Z,7.90
2023-01-08T08:56:05.314Z,7.90
2023-01-08T08:57:27.922Z,7.90
2023-01-08T08:58:51.828Z,7.90
2023-01-08T09:00:14.788Z,7.90
2023-01-08T09:01:37.006Z,7.90
2023-01-08T09:02:59.285Z,7.80
2023-01-08T09:04:21.441Z,7.80
2023-01-08T09:05:43.707Z,7.80
2023-01-08T09:07:05.821Z,7.90
2023-01-08T09:08:27.867Z,7.90
2023-01-08T09:09:49.957Z,7.90
2023-01-08T09:11:14.251Z,7.90
2023-01-08T09:12:36.540Z,7.90
2023-01-08T09:13:58.748Z,7.90
2023-01-08T09:15:21.326Z,7.90
2023-01-08T09:16:43.406Z,7.90
2023-01-08T09:18:05.829Z,8.00
2023-01-08T09:19:27.861Z,7.90
2023-01-08T09:20:49.932Z,7.90
2023-01-08T09:22:12.022Z,8.00
2023-01-08T09:23:34.780Z,8.00
2023-01-08T09:24:56.840Z,8.00
2023-01-08T09:26:18.907Z,8.00
2023-01-08T09:27:41.036Z,8.00
2023-01-08T09:29:04.000Z,8.00
2023-01-08T09:30:26.136Z,8.00
2023-01-08T09:31:48.300Z,8.00
2023-01-08T09:33:11.288Z,8.00
2023-01-08T09:34:34.181Z,8.00
2023-01-08T09:35:56.361Z,8.00
2023-01-08T09:37:18.463Z,8.00
2023-01-08T09:38:40.784Z,7.90
2023-01-08T09:40:03.499Z,7.90
2023-01-08T09:41:30.451Z,7.90
2023-01-08T09:43:00.288Z,7.90
2023-01-08T09:44:27.612Z,7.90
2023-01-08T09:45:53.400Z,7.90
2023-01-08T09:47:27.694Z,7.90
2023-01-08T09:48:51.301Z,7.90
2023-01-08T09:50:14.951Z,7.90
2023-01-08T09:51:39.051Z,8.00
2023-01-08T09:53:01.725Z,8.00
2023-01-08T09:54:26.120Z,8.00
2023-01-08T09:56:08.993Z,8.00
2023-01-08T09:57:32.104Z,8.00
2023-01-08T09:58:57.943Z,8.00
2023-01-08T10:00:26.514Z,8.00
2023-01-08T10:01:48.946Z,8.00
2023-01-08T10:03:12.521Z,8.00
2023-01-08T10:04:34.892Z,8.00
2023-01-08T10:05:57.000Z,8.00
2023-01-08T10:07:21.819Z,8.00
2023-01-08T10:10:15.698Z,8.00
2023-01-08T10:11:44.676Z,8.00
2023-01-08T10:13:07.340Z,8.00
2023-01-08T10:14:37.715Z,8.00
2023-01-08T10:16:04.440Z,8.00
2023-01-08T10:18:06.381Z,8.00
2023-01-08T10:19:28.676Z,7.90
2023-01-08T10:20:51.518Z,8.00
2023-01-08T10:22:23.960Z,7.90
2023-01-08T10:23:53.236Z,7.90
2023-01-08T10:25:20.888Z,7.90
2023-01-08T10:26:43.024Z,7.90
2023-01-08T10:28:05.152Z,7.90
2023-01-08T10:29:27.178Z,7.90
2023-01-08T10:30:51.599Z,7.90
2023-01-08T10:32:19.593Z,7.90
2023-01-08T10:33:49.373Z,7.90
2023-01-08T10:35:24.737Z,7.90
2023-01-08T10:36:47.301Z,7.90
2023-01-08T10:38:28.000Z,7.90
2023-01-08T10:39:51.652Z,7.90
2023-01-08T10:41:14.433Z,7.90
2023-01-08T10:42:37.147Z,7.90
2023-01-08T10:44:07.646Z,7.90
2023-01-08T10:45:29.960Z,7.90
2023-01-08T10:46:55.924Z,7.90
2023-01-08T10:48:18.572Z,7.90
2023-01-08T10:49:43.737Z,8.00
2023-01-08T10:51:25.946Z,8.00
2023-01-08T10:53:00.182Z,8.00
2023-01-08T10:54:41.271Z,8.00
2023-01-08T10:56:05.192Z,8.00
2023-01-08T10:57:29.410Z,8.00
2023-01-08T10:58:52.433Z,8.00
2023-01-08T11:00:25.938Z,8.00
2023-01-08T11:01:53.049Z,8.10
2023-01-08T11:03:32.649Z,8.00
2023-01-08T11:04:54.836Z,8.10
2023-01-08T11:06:23.508Z,8.10
2023-01-08T11:07:51.925Z,8.00
2023-01-08T11:09:25.591Z,8.10
2023-01-08T11:10:59.194Z,8.10
2023-01-08T11:12:38.788Z,8.10
2023-01-08T11:14:04.317Z,8.10
2023-01-08T11:15:36.307Z,8.10
2023-01-08T11:16:59.277Z,8.10
2023-01-08T11:18:29.181Z,8.10
2023-01-08T11:19:51.639Z,8.20
2023-01-08T11:21:25.981Z,8.20
2023-01-08T11:22:48.158Z,8.20
2023-01-08T11:24:20.893Z,8.20
2023-01-08T11:25:48.921Z,8.20
2023-01-08T11:27:18.495Z,8.20
2023-01-08T11:28:43.372Z,8.20
2023-01-08T11:30:13.035Z,8.30
2023-01-08T11:31:51.381Z,8.20
2023-01-08T11:33:21.136Z,8.30
2023-01-08T11:34:48.855Z,8.30
2023-01-08T11:36:32.630Z,8.30
2023-01-08T11:38:00.893Z,8.30
2023-01-08T11:39:23.083Z,8.30
2023-01-08T11:41:05.522Z,8.30
2023-01-08T11:42:36.716Z,8.30
2023-01-08T11:44:01.472Z,8.30
2023-01-08T11:45:23.635Z,8.30
2023-01-08T11:47:21.992Z,8.30
2023-01-08T11:48:58.988Z,8.30
2023-01-08T11:50:26.891Z,8.40
2023-01-08T11:52:17.497Z,8.30
2023-01-08T11:53:59.452Z,8.40
2023-01-08T11:55:36.780Z,8.40
2023-01-08T11:57:14.171Z,8.40
2023-01-08T11:58:55.153Z,8.40
2023-01-08T12:00:44.595Z,8.50
2023-01-08T12:02:30.767Z,8.60
2023-01-08T12:04:18.896Z,8.60
2023-01-08T12:06:15.921Z,8.70
2023-01-08T12:07:37.925Z,8.70
2023-01-08T12:09:35.898Z,8.80
2023-01-08T12:11:06.521Z,8.80
2023-01-08T12:12:47.139Z,8.80
2023-01-08T12:14:32.854Z,8.90
2023-01-08T12:16:29.838Z,8.90
2023-01-08T12:18:10.068Z,8.90
2023-01-08T12:19:50.549Z,8.90
2023-01-08T12:21:39.625Z,8.90
2023-01-08T12:23:14.731Z,9.00
2023-01-08T12:25:04.131Z,9.00
2023-01-08T12:26:37.791Z,9.00
2023-01-08T12:28:41.110Z,9.10
2023-01-08T12:30:44.233Z,9.10
2023-01-08T12:32:17.934Z,9.10
2023-01-08T12:33:49.749Z,9.10
2023-01-08T12:35:15.876Z,9.20
2023-01-08T12:36:45.502Z,9.20
2023-01-08T12:38:17.960Z,9.20
2023-01-08T12:40:07.557Z,9.10
2023-01-08T12:41:34.025Z,9.10
2023-01-08T12:43:03.052Z,9.10
2023-01-08T12:44:29.935Z,9.10
2023-01-08T12:45:55.388Z,9.10
2023-01-08T12:47:22.561Z,9.10
2023-01-08T12:48:49.708Z,9.00
2023-01-08T12:50:31.531Z,9.00
2023-01-08T12:52:22.209Z,9.00
2023-01-08T12:53:44.249Z,9.00
2023-01-08T12:55:43.294Z,9.00
2023-01-08T12:57:12.325Z,9.00
2023-01-08T12:58:55.042Z,9.00
2023-01-08T13:00:43.409Z,9.00
2023-01-08T13:02:11.740Z,9.00
2023-01-08T13:03:34.178Z,9.00
2023-01-08T13:04:56.252Z,9.00
2023-01-08T13:06:19.787Z,9.00
2023-01-08T13:07:51.468Z,9.00
2023-01-08T13:09:25.553Z,9.00
2023-01-08T13:10:54.350Z,9.00
2023-01-08T13:13:48.126Z,9.00
2023-01-08T13:15:24.722Z,9.00
2023-01-08T13:17:00.017Z,9.00
2023-01-08T13:18:22.251Z,9.00
2023-01-08T13:19:51.108Z,9.00
2023-01-08T13:21:14.234Z,9.00
2023-01-08T13:22:37.527Z,9.00
2023-01-08T13:24:20.731Z,8.90
2023-01-08T13:25:52.408Z,8.90
2023-01-08T13:27:17.404Z,8.90
2023-01-08T13:28:45.263Z,8.80
2023-01-08T13:30:42.567Z,8.80
2023-01-08T13:32:05.522Z,8.80
2023-01-08T13:33:40.326Z,8.70
2023-01-08T13:35:17.535Z,8.70
2023-01-08T13:36:39.609Z,8.70
2023-01-08T13:38:21.388Z,8.70
2023-01-08T13:39:43.460Z,8.70
2023-01-08T13:41:06.057Z,8.70
2023-01-08T13:42:29.335Z,8.70
2023-01-08T13:44:05.148Z,8.70
2023-01-08T13:45:29.207Z,8.70
2023-01-08T13:47:00.981Z,8.70
2023-01-08T13:48:25.143Z,8.70
2023-01-08T13:49:51.351Z,8.70
2023-01-08T13:51:33.574Z,8.70
2023-01-08T13:53:01.787Z,8.70
2023-01-08T13:54:36.886Z,8.70
2023-01-08T13:56:07.922Z,8.70
2023-01-08T13:57:38.244Z,8.70
2023-01-08T13:59:00.549Z,8.70
2023-01-08T14:00:27.976Z,8.70
2023-01-08T14:01:57.697Z,8.70
2023-01-08T14:03:30.160Z,8.70
2023-01-08T14:04:52.615Z,8.60
2023-01-08T14:06:23.732Z,8.60
2023-01-08T14:07:45.792Z,8.70
2023-01-08T14:09:23.609Z,8.60
2023-01-08T14:10:45.747Z,8.60
2023-01-08T14:12:14.351Z,8.60
2023-01-08T14:13:38.180Z,8.60
2023-01-08T14:15:00.627Z,8.60
2023-01-08T14:16:23.287Z,8.50
2023-01-08T14:17:45.520Z,8.50
2023-01-08T14:19:08.230Z,8.50
2023-01-08T14:20:35.634Z,8.50
2023-01-08T14:22:01.544Z,8.50
2023-01-08T14:23:36.279Z,8.40
2023-01-08T14:25:03.490Z,8.40
2023-01-08T14:26:40.904Z,8.40
2023-01-08T14:28:05.498Z,8.30
2023-01-08T14:29:30.701Z,8.30
2023-01-08T14:30:55.136Z,8.30
2023-01-08T14:32:20.061Z,8.30
2023-01-08T14:33:42.702Z,8.30
2023-01-08T14:35:09.282Z,8.20
2023-01-08T14:36:31.931Z,8.20
2023-01-08T14:37:54.476Z,8.20
2023-01-08T14:39:24.321Z,8.20
2023-01-08T14:40:57.398Z,8.20
2023-01-08T14:42:44.125Z,8.20
2023-01-08T14:44:06.233Z,8.20
2023-01-08T14:45:34.061Z,8.20
2023-01-08T14:46:56.334Z,8.10
2023-01-08T14:48:24.150Z,8.10
2023-01-08T14:49:53.053Z,8.10
2023-01-08T14:51:21.414Z,8.10
2023-01-08T14:52:43.757Z,8.00
2023-01-08T14:54:08.446Z,8.00
2023-01-08T14:55:33.586Z,8.00
2023-01-08T14:57:00.925Z,8.00
2023-01-08T14:58:26.368Z,8.00
2023-01-08T14:59:55.041Z,8.00
2023-01-08T15:01:20.604Z,8.00
2023-01-08T15:02:42.920Z,8.10
2023-01-08T15:04:13.556Z,8.10
2023-01-08T15:05:35.687Z,8.00
2023-01-08T15:07:22.649Z,8.00
2023-01-08T15:08:45.151Z,8.00
2023-01-08T15:10:44.131Z,8.00
2023-01-08T15:12:08.230Z,8.00
2023-01-08T15:13:32.608Z,8.00
2023-01-08T15:14:55.297Z,8.00
2023-01-08T15:16:23.749Z,8.00
2023-01-08T15:17:45.928Z,8.00
2023-01-08T15:19:20.008Z,8.00
2023-01-08T15:20:44.449Z,8.00
2023-01-08T15:22:15.831Z,8.00
2023-01-08T15:23:42.981Z,8.00
2023-01-08T15:25:07.805Z,8.00
2023-01-08T15:26:30.104Z,8.00
2023-01-08T15:27:58.062Z,8.00
2023-01-08T15:29:28.076Z,8.00
2023-01-08T15:30:50.570Z,8.00
2023-01-08T15:32:15.592Z,8.10
2023-01-08T15:33:37.736Z,8.10
2023-01-08T15:35:00.015Z,8.10
2023-01-08T15:36:22.144Z,8.10
2023-01-08T15:37:44.826Z,8.10
2023-01-08T15:39:07.131Z,8.10
2023-01-08T15:40:29.168Z,8.10
2023-01-08T15:42:10.078Z,8.10
2023-01-08T15:43:32.120Z,8.10
2023-01-08T15:44:54.207Z,8.10
2023-01-08T15:46:16.247Z,8.10
2023-01-08T15:47:38.367Z,8.10
2023-01-08T15:49:00.539Z,8.10
2023-01-08T15:50:24.633Z,8.10
2023-01-08T15:51:51.140Z,8.10
2023-01-08T15:53:24.271Z,8.10
2023-01-08T15:54:46.338Z,8.10
2023-01-08T15:56:08.465Z,8.10
2023-01-08T15:57:30.491Z,8.10
2023-01-08T15:58:52.998Z,8.20
2023-01-08T16:00:16.804Z,8.20
2023-01-08T16:01:39.057Z,8.20
2023-01-08T16:03:03.667Z,8.20
2023-01-08T16:04:25.756Z,8.20
2023-01-08T16:05:47.820Z,8.20
2023-01-08T16:07:10.174Z,8.30
2023-01-08T16:08:32.324Z,8.30
2023-01-08T16:09:54.363Z,8.30
2023-01-08T16:11:20.262Z,8.30
2023-01-08T16:12:45.230Z,8.30
2023-01-08T16:14:07.290Z,8.30
2023-01-08T16:15:30.916Z,8.30
2023-01-08T16:16:53.140Z,8.30
2023-01-08T16:18:15.310Z,8.30
2023-01-08T16:19:37.412Z,8.30
2023-01-08T16:21:02.688Z,8.40
2023-01-08T16:22:24.779Z,8.40
2023-01-08T16:23:46.897Z,8.40
2023-01-08T16:25:09.749Z,8.40
2023-01-08T16:26:31.849Z,8.40
2023-01-08T16:27:53.946Z,8.40
2023-01-08T16:29:16.025Z,8.40
2023-01-08T16:30:41.318Z,8.50
2023-01-08T16:32:03.728Z,8.50
2023-01-08T16:33:25.864Z,8.50
2023-01-08T16:34:48.080Z,8.50
2023-01-08T16:36:10.875Z,8.50
2023-01-08T16:37:33.473Z,8.50
2023-01-08T16:38:55.659Z,8.50
2023-01-08T16:40:17.858Z,8.50
2023-01-08T16:41:39.913Z,8.50
2023-01-08T16:43:02.378Z,8.50
2023-01-08T16:44:28.714Z,8.50
2023-01-08T16:45:50.935Z,8.50
2023-01-08T16:47:13.154Z,8.50
2023-01-08T16:48:35.223Z,8.60
2023-01-08T16:49:57.312Z,8.60
2023-01-08T16:51:21.147Z,8.60
2023-01-08T16:52:43.341Z,8.60
2023-01-08T16:54:05.511Z,8.50
2023-01-08T16:55:27.583Z,8.50
2023-01-08T16:56:49.675Z,8.50
2023-01-08T16:58:11.821Z,8.50
2023-01-08T16:59:34.009Z,8.50
2023-01-08T17:00:57.150Z,8.50
2023-01-08T17:02:19.307Z,8.50
2023-01-08T17:03:41.391Z,8.50
2023-01-08T17:05:03.635Z,8.50
2023-01-08T17:06:25.783Z,8.50
2023-01-08T17:07:52.085Z,8.50
2023-01-08T17:09:14.888Z,8.50
2023-01-08T17:10:39.743Z,8.50
2023-01-08T17:12:01.822Z,8.50
2023-01-08T17:13:23.985Z,8.50
2023-01-08T17:14:46.679Z,8.50
2023-01-08T17:16:12.839Z,8.50
2023-01-08T17:17:34.967Z,8.50
2023-01-08T17:18:57.199Z,8.40
2023-01-08T17:20:19.971Z,8.50
2023-01-08T17:21:42.077Z,8.40
2023-01-08T17:23:04.187Z,8.40
2023-01-08T17:24:26.285Z,8.40
2023-01-08T17:25:48.299Z,8.40
2023-01-08T17:27:11.689Z,8.30
2023-01-08T17:28:35.033Z,8.30
2023-01-08T17:29:57.105Z,8.30
2023-01-08T17:31:19.902Z,8.30
2023-01-08T17:32:42.331Z,8.30
2023-01-08T17:34:04.414Z,8.30
2023-01-08T17:35:26.542Z,8.30
2023-01-08T17:36:48.579Z,8.30
2023-01-08T17:38:11.410Z,8.30
2023-01-08T17:39:33.666Z,8.30
2023-01-08T17:41:01.121Z,8.30
2023-01-08T17:42:27.567Z,8.40
2023-01-08T17:43:49.694Z,8.30
2023-01-08T17:45:12.018Z,8.30
2023-01-08T17:46:43.808Z,8.30
2023-01-08T17:48:06.569Z,8.30
2023-01-08T17:49:30.575Z,8.30
2023-01-08T17:50:52.693Z,8.30
2023-01-08T17:52:14.738Z,8.30
2023-01-08T17:53:36.762Z,8.30
2023-01-08T17:54:58.937Z,8.30
2023-01-08T17:56:21.019Z,8.40
2023-01-08T17:57:43.147Z,8.30
2023-01-08T17:59:05.649Z,8.40
2023-01-08T18:00:27.755Z,8.40
2023-01-08T18:01:52.970Z,8.40
2023-01-08T18:03:15.146Z,8.40
2023-01-08T18:04:37.521Z,8.40
2023-01-08T18:06:05.016Z,8.50
2023-01-08T18:07:27.184Z,8.50
2023-01-08T18:08:49.328Z,8.50
2023-01-08T18:10:12.911Z,8.50
2023-01-08T18:11:35.182Z,8.60
2023-01-08T18:12:57.256Z,8.60
2023-01-08T18:14:20.966Z,8.60
2023-01-08T18:15:43.077Z,8.60
2023-01-08T18:17:06.082Z,8.60
2023-01-08T18:18:28.367Z,8.60
2023-01-08T18:19:50.583Z,8.70
2023-01-08T18:21:12.669Z,8.70
2023-01-08T18:22:34.878Z,8.60
2023-01-08T18:23:57.093Z,8.60
2023-01-08T18:25:19.242Z,8.60
2023-01-08T18:26:42.043Z,8.60
2023-01-08T18:28:04.404Z,8.70
2023-01-08T18:29:27.029Z,8.70
2023-01-08T18:30:49.159Z,8.70
2023-01-08T18:32:11.204Z,8.70
2023-01-08T18:33:33.511Z,8.70
2023-01-08T18:34:55.553Z,8.70
2023-01-08T18:36:18.121Z,8.70
2023-01-08T18:37:40.230Z,8.70
2023-01-08T18:39:02.533Z,8.70
2023-01-08T18:40:24.907Z,8.70
2023-01-08T18:42:05.565Z,8.70
2023-01-08T18:43:28.834Z,8.70
2023-01-08T18:44:54.505Z,8.70
2023-01-08T18:46:16.568Z,8.70
2023-01-08T18:47:39.132Z,8.60
2023-01-08T18:49:01.394Z,8.60
2023-01-08T18:50:23.475Z,8.60
2023-01-08T18:51:45.909Z,8.50
2023-01-08T18:53:09.604Z,8.50
2023-01-08T18:54:33.712Z,8.40
2023-01-08T18:55:59.619Z,8.30
2023-01-08T18:57:21.671Z,8.30
2023-01-08T18:58:43.860Z,8.30
2023-01-08T19:00:06.819Z,8.30
2023-01-08T19:01:29.729Z,8.30
2023-01-08T19:02:53.020Z,8.30
2023-01-08T19:04:18.248Z,8.30